sensor_id;sensor_type;location;lat;lon;timestamp;pressure;altitude;pressure_sealevel;temperature;humidity
4024;BME280;2026;51.002;13.668;2023-01-28T00:05:01;99873.59;;;0.60;96.70
4024;BME280;2026;51.002;13.668;2023-01-28T00:10:05;99882.09;;;-0.15;99.86
4024;BME280;2026;51.002;13.668;2023-01-28T00:15:10;99870.88;;;-0.25;100.00
4024;BME280;2026;51.002;13.668;2023-01-28T00:20:14;99868.72;;;-0.08;100.00
4024;BME280;2026;51.002;13.668;2023-01-28T00:25:17;99877.34;;;-0.31;100.00
4024;BME280;2026;51.002;13.668;2023-01-28T00:30:22;99877.97;;;-0.06;100.00
4024;BME280;2026;51.002;13.668;2023-01-28T00:35:25;99878.13;;;-0.19;100.00
4024;BME280;2026;51.002;13.668;2023-01-28T00:40:28;99873.41;;;-0.14;100.00
4024;BME280;2026;51.002;13.668;2023-01-28T00:45:32;99875.94;;;-0.23;99.87
4024;BME280;2026;51.002;13.668;2023-01-28T00:50:35;99876.41;;;-0.30;100.00
4024;BME280;2026;51.002;13.668;2023-01-28T00:55:40;99886.38;;;-0.36;100.00
4024;BME280;2026;51.002;13.668;2023-01-28T01:00:44;99889.66;;;-0.46;100.00
4024;BME280;2026;51.002;13.668;2023-01-28T01:05:47;99879.19;;;-0.21;100.00
4024;BME280;2026;51.002;13.668;2023-01-28T01:10:50;99874.03;;;-0.21;99.62
4024;BME280;2026;51.002;13.668;2023-01-28T01:16:02;99889.28;;;-0.41;98.42
4024;BME280;2026;51.002;13.668;2023-01-28T01:21:07;99897.03;;;-0.30;97.75
4024;BME280;2026;51.002;13.668;2023-01-28T01:26:12;99893.31;;;-0.48;98.01
4024;BME280;2026;51.002;13.668;2023-01-28T01:31:19;99896.91;;;-0.40;97.85
4024;BME280;2026;51.002;13.668;2023-01-28T01:36:22;99906.63;;;-0.43;97.98
4024;BME280;2026;51.002;13.668;2023-01-28T01:41:27;99898.91;;;-0.32;98.38
4024;BME280;2026;51.002;13.668;2023-01-28T01:46:35;99898.50;;;-0.04;98.12
4024;BME280;2026;51.002;13.668;2023-01-28T01:51:40;99894.28;;;-0.05;97.18
4024;BME280;2026;51.002;13.668;2023-01-28T01:56:47;99899.34;;;-0.15;97.70
4024;BME280;2026;51.002;13.668;2023-01-28T02:01:53;99892.09;;;-0.21;97.44
4024;BME280;2026;51.002;13.668;2023-01-28T02:06:59;99898.75;;;-0.30;97.86
4024;BME280;2026;51.002;13.668;2023-01-28T02:12:06;99888.97;;;-0.04;97.43
4024;BME280;2026;51.002;13.668;2023-01-28T02:17:12;99894.03;;;-0.02;95.70
4024;BME280;2026;51.002;13.668;2023-01-28T02:33:32;99889.41;;;0.13;94.25
4024;BME280;2026;51.002;13.668;2023-01-28T02:38:41;99893.97;;;-0.35;94.49
4024;BME280;2026;51.002;13.668;2023-01-28T02:43:50;99898.19;;;-0.22;95.38
4024;BME280;2026;51.002;13.668;2023-01-28T02:48:53;99899.13;;;-0.35;95.33
4024;BME280;2026;51.002;13.668;2023-01-28T02:53:59;99903.91;;;-0.19;95.77
4024;BME280;2026;51.002;13.668;2023-01-28T02:59:10;99900.34;;;-0.06;95.56
4024;BME280;2026;51.002;13.668;2023-01-28T03:04:33;99906.28;;;0.17;95.05
4024;BME280;2026;51.002;13.668;2023-01-28T03:09:41;99909.06;;;0.14;95.34
4024;BME280;2026;51.002;13.668;2023-01-28T03:14:50;99912.13;;;0.19;94.15
4024;BME280;2026;51.002;13.668;2023-01-28T03:20:12;99913.06;;;-0.38;96.69
4024;BME280;2026;51.002;13.668;2023-01-28T03:25:33;99912.19;;;-0.04;95.84
4024;BME280;2026;51.002;13.668;2023-01-28T03:30:58;99920.19;;;-0.18;95.96
4024;BME280;2026;51.002;13.668;2023-01-28T03:36:23;99914.97;;;-0.51;97.15
4024;BME280;2026;51.002;13.668;2023-01-28T03:41:57;99934.19;;;-0.67;98.14
4024;BME280;2026;51.002;13.668;2023-01-28T03:47:02;99933.09;;;-0.75;97.24
4024;BME280;2026;51.002;13.668;2023-01-28T03:52:08;99933.09;;;-0.87;96.94
4024;BME280;2026;51.002;13.668;2023-01-28T03:57:11;99935.44;;;-0.72;96.25
4024;BME280;2026;51.002;13.668;2023-01-28T04:02:16;99947.16;;;-0.80;96.52
4024;BME280;2026;51.002;13.668;2023-01-28T04:07:21;99949.25;;;-0.85;96.45
4024;BME280;2026;51.002;13.668;2023-01-28T04:12:40;99945.34;;;-1.02;96.07
4024;BME280;2026;51.002;13.668;2023-01-28T04:17:47;99945.25;;;-1.00;95.74
4024;BME280;2026;51.002;13.668;2023-01-28T04:22:59;99945.94;;;-0.98;95.25
4024;BME280;2026;51.002;13.668;2023-01-28T04:28:03;99953.84;;;-1.24;96.52
4024;BME280;2026;51.002;13.668;2023-01-28T04:33:08;99957.72;;;-1.18;95.19
4024;BME280;2026;51.002;13.668;2023-01-28T04:38:40;99961.94;;;-1.17;94.80
4024;BME280;2026;51.002;13.668;2023-01-28T04:44:15;99954.44;;;-1.21;94.01
4024;BME280;2026;51.002;13.668;2023-01-28T04:49:31;99964.56;;;-1.42;93.90
4024;BME280;2026;51.002;13.668;2023-01-28T04:55:12;99972.38;;;-1.08;93.34
4024;BME280;2026;51.002;13.668;2023-01-28T05:00:16;99973.78;;;-1.39;91.77
4024;BME280;2026;51.002;13.668;2023-01-28T05:05:21;99983.09;;;-1.74;93.26
4024;BME280;2026;51.002;13.668;2023-01-28T05:10:33;99995.75;;;-1.71;93.66
4024;BME280;2026;51.002;13.668;2023-01-28T05:15:36;99994.69;;;-1.93;93.20
4024;BME280;2026;51.002;13.668;2023-01-28T05:20:41;99994.34;;;-1.88;93.54
4024;BME280;2026;51.002;13.668;2023-01-28T05:25:44;100000.75;;;-1.94;93.06
4024;BME280;2026;51.002;13.668;2023-01-28T05:30:47;100008.22;;;-2.15;93.14
4024;BME280;2026;51.002;13.668;2023-01-28T05:35:53;100023.09;;;-2.20;91.82
4024;BME280;2026;51.002;13.668;2023-01-28T05:40:57;100016.09;;;-2.05;91.70
4024;BME280;2026;51.002;13.668;2023-01-28T05:46:00;100025.22;;;-2.01;91.53
4024;BME280;2026;51.002;13.668;2023-01-28T05:51:30;100020.59;;;-2.09;90.63
4024;BME280;2026;51.002;13.668;2023-01-28T05:56:33;100029.59;;;-2.27;90.96
4024;BME280;2026;51.002;13.668;2023-01-28T06:01:37;100040.38;;;-2.35;91.07
4024;BME280;2026;51.002;13.668;2023-01-28T06:06:41;100046.56;;;-2.38;92.50
4024;BME280;2026;51.002;13.668;2023-01-28T06:11:44;100045.09;;;-2.29;91.66
4024;BME280;2026;51.002;13.668;2023-01-28T06:16:48;100056.72;;;-2.23;91.06
4024;BME280;2026;51.002;13.668;2023-01-28T06:22:01;100074.50;;;-2.20;90.66
4024;BME280;2026;51.002;13.668;2023-01-28T06:27:05;100074.81;;;-2.51;91.62
4024;BME280;2026;51.002;13.668;2023-01-28T06:32:08;100079.94;;;-2.51;90.17
4024;BME280;2026;51.002;13.668;2023-01-28T06:37:13;100091.09;;;-2.52;89.38
4024;BME280;2026;51.002;13.668;2023-01-28T06:42:17;100099.94;;;-2.56;89.40
4024;BME280;2026;51.002;13.668;2023-01-28T06:47:20;100098.50;;;-2.60;88.75
4024;BME280;2026;51.002;13.668;2023-01-28T06:52:24;100108.59;;;-2.57;88.04
4024;BME280;2026;51.002;13.668;2023-01-28T06:57:28;100107.66;;;-2.56;88.64
4024;BME280;2026;51.002;13.668;2023-01-28T07:02:31;100110.81;;;-2.65;89.36
4024;BME280;2026;51.002;13.668;2023-01-28T07:07:36;100124.22;;;-2.47;88.02
4024;BME280;2026;51.002;13.668;2023-01-28T07:12:42;100126.47;;;-2.42;88.85
4024;BME280;2026;51.002;13.668;2023-01-28T07:17:46;100130.69;;;-2.28;86.25
4024;BME280;2026;51.002;13.668;2023-01-28T07:22:50;100130.16;;;-2.47;86.02
4024;BME280;2026;51.002;13.668;2023-01-28T07:27:53;100133.47;;;-2.32;84.16
4024;BME280;2026;51.002;13.668;2023-01-28T07:32:59;100140.03;;;-2.40;83.37
4024;BME280;2026;51.002;13.668;2023-01-28T07:38:03;100135.38;;;-2.61;84.05
4024;BME280;2026;51.002;13.668;2023-01-28T07:43:06;100136.22;;;-2.35;86.98
4024;BME280;2026;51.002;13.668;2023-01-28T07:48:12;100142.97;;;-2.60;84.90
4024;BME280;2026;51.002;13.668;2023-01-28T07:53:16;100140.44;;;-2.47;84.24
4024;BME280;2026;51.002;13.668;2023-01-28T07:58:20;100143.50;;;-2.54;83.30
4024;BME280;2026;51.002;13.668;2023-01-28T08:03:23;100145.59;;;-2.21;83.61
4024;BME280;2026;51.002;13.668;2023-01-28T08:08:28;100152.41;;;-2.20;80.06
4024;BME280;2026;51.002;13.668;2023-01-28T08:13:31;100155.88;;;-2.21;78.50
4024;BME280;2026;51.002;13.668;2023-01-28T08:18:34;100149.53;;;-2.28;79.81
4024;BME280;2026;51.002;13.668;2023-01-28T08:23:38;100146.16;;;-2.56;79.51
4024;BME280;2026;51.002;13.668;2023-01-28T08:28:42;100161.69;;;-2.45;78.88
4024;BME280;2026;51.002;13.668;2023-01-28T08:33:45;100143.03;;;-2.21;77.86
4024;BME280;2026;51.002;13.668;2023-01-28T08:38:52;100153.59;;;-2.38;78.18
4024;BME280;2026;51.002;13.668;2023-01-28T08:43:55;100161.44;;;-2.27;78.71
4024;BME280;2026;51.002;13.668;2023-01-28T08:48:58;100165.75;;;-2.14;78.42
4024;BME280;2026;51.002;13.668;2023-01-28T08:54:03;100168.00;;;-2.23;77.49
4024;BME280;2026;51.002;13.668;2023-01-28T08:59:06;100165.13;;;-2.05;77.53
4024;BME280;2026;51.002;13.668;2023-01-28T09:04:09;100183.88;;;-2.03;77.29
4024;BME280;2026;51.002;13.668;2023-01-28T09:09:13;100176.06;;;-1.88;75.85
4024;BME280;2026;51.002;13.668;2023-01-28T09:14:16;100181.41;;;-1.66;74.86
4024;BME280;2026;51.002;13.668;2023-01-28T09:19:19;100180.97;;;-1.85;75.22
4024;BME280;2026;51.002;13.668;2023-01-28T09:24:24;100184.56;;;-1.75;75.22
4024;BME280;2026;51.002;13.668;2023-01-28T09:29:27;100191.97;;;-1.70;75.43
4024;BME280;2026;51.002;13.668;2023-01-28T09:34:30;100197.41;;;-1.62;75.06
4024;BME280;2026;51.002;13.668;2023-01-28T09:39:34;100189.97;;;-1.28;75.44
4024;BME280;2026;51.002;13.668;2023-01-28T09:44:44;100184.06;;;-1.54;75.32
4024;BME280;2026;51.002;13.668;2023-01-28T09:49:58;100193.94;;;-2.00;76.47
4024;BME280;2026;51.002;13.668;2023-01-28T09:55:06;100187.75;;;-1.84;74.31
4024;BME280;2026;51.002;13.668;2023-01-28T10:00:14;100201.63;;;-2.00;75.33
4024;BME280;2026;51.002;13.668;2023-01-28T10:05:23;100201.50;;;-2.24;74.87
4024;BME280;2026;51.002;13.668;2023-01-28T10:10:33;100197.31;;;-2.12;74.67
4024;BME280;2026;51.002;13.668;2023-01-28T10:15:55;100202.66;;;-2.15;73.70
4024;BME280;2026;51.002;13.668;2023-01-28T10:21:05;100207.00;;;-1.64;73.40
4024;BME280;2026;51.002;13.668;2023-01-28T10:26:18;100196.69;;;-1.64;71.75
4024;BME280;2026;51.002;13.668;2023-01-28T10:31:29;100209.06;;;-1.69;71.26
4024;BME280;2026;51.002;13.668;2023-01-28T10:36:33;100206.69;;;-1.72;72.88
4024;BME280;2026;51.002;13.668;2023-01-28T10:41:37;100213.25;;;-2.07;74.88
4024;BME280;2026;51.002;13.668;2023-01-28T10:47:01;100215.81;;;-1.94;74.80
4024;BME280;2026;51.002;13.668;2023-01-28T10:52:10;100226.84;;;-1.79;74.38
4024;BME280;2026;51.002;13.668;2023-01-28T10:57:16;100229.28;;;-1.91;74.51
4024;BME280;2026;51.002;13.668;2023-01-28T11:02:27;100234.66;;;-1.68;72.17
4024;BME280;2026;51.002;13.668;2023-01-28T11:07:32;100223.84;;;-1.86;74.62
4024;BME280;2026;51.002;13.668;2023-01-28T11:12:37;100226.41;;;-1.86;75.67
4024;BME280;2026;51.002;13.668;2023-01-28T11:17:40;100229.50;;;-1.94;76.02
4024;BME280;2026;51.002;13.668;2023-01-28T11:22:50;100220.06;;;-1.67;73.51
4024;BME280;2026;51.002;13.668;2023-01-28T11:27:57;100211.72;;;-1.45;72.26
4024;BME280;2026;51.002;13.668;2023-01-28T11:33:04;100214.91;;;-1.54;76.07
4024;BME280;2026;51.002;13.668;2023-01-28T11:38:18;100225.38;;;-1.96;75.12
4024;BME280;2026;51.002;13.668;2023-01-28T11:43:24;100210.91;;;-1.84;74.34
4024;BME280;2026;51.002;13.668;2023-01-28T11:48:35;100200.41;;;-1.55;73.32
4024;BME280;2026;51.002;13.668;2023-01-28T11:53:51;100198.47;;;-1.65;72.43
4024;BME280;2026;51.002;13.668;2023-01-28T11:59:07;100198.44;;;-1.91;74.54
4024;BME280;2026;51.002;13.668;2023-01-28T12:04:24;100199.06;;;-1.74;74.21
4024;BME280;2026;51.002;13.668;2023-01-28T12:09:39;100198.94;;;-1.33;71.95
4024;BME280;2026;51.002;13.668;2023-01-28T12:15:18;100192.06;;;-1.46;73.90
4024;BME280;2026;51.002;13.668;2023-01-28T12:20:28;100196.81;;;-2.05;74.50
4024;BME280;2026;51.002;13.668;2023-01-28T12:25:39;100200.72;;;-1.99;73.73
4024;BME280;2026;51.002;13.668;2023-01-28T12:31:03;100191.25;;;-2.11;74.13
4024;BME280;2026;51.002;13.668;2023-01-28T12:36:22;100186.53;;;-1.92;74.30
4024;BME280;2026;51.002;13.668;2023-01-28T12:41:33;100188.78;;;-2.00;73.33
4024;BME280;2026;51.002;13.668;2023-01-28T12:46:43;100185.06;;;-2.09;74.18
4024;BME280;2026;51.002;13.668;2023-01-28T12:51:58;100169.03;;;-1.60;74.44
4024;BME280;2026;51.002;13.668;2023-01-28T12:57:03;100176.25;;;-2.05;73.87
4024;BME280;2026;51.002;13.668;2023-01-28T13:02:20;100181.06;;;-1.74;74.68
4024;BME280;2026;51.002;13.668;2023-01-28T13:07:31;100174.81;;;-1.83;73.89
4024;BME280;2026;51.002;13.668;2023-01-28T13:12:37;100164.47;;;-1.44;72.23
4024;BME280;2026;51.002;13.668;2023-01-28T13:17:54;100180.16;;;-1.99;73.54
4024;BME280;2026;51.002;13.668;2023-01-28T13:22:59;100172.13;;;-1.94;72.84
4024;BME280;2026;51.002;13.668;2023-01-28T13:28:05;100179.84;;;-1.94;72.53
4024;BME280;2026;51.002;13.668;2023-01-28T13:33:28;100179.34;;;-1.86;71.98
4024;BME280;2026;51.002;13.668;2023-01-28T13:38:31;100190.34;;;-1.84;72.78
4024;BME280;2026;51.002;13.668;2023-01-28T13:43:37;100180.66;;;-1.68;74.12
4024;BME280;2026;51.002;13.668;2023-01-28T13:48:45;100190.81;;;-2.18;73.48
4024;BME280;2026;51.002;13.668;2023-01-28T13:53:56;100180.16;;;-1.99;74.55
4024;BME280;2026;51.002;13.668;2023-01-28T13:59:27;100199.69;;;-1.83;72.25
4024;BME280;2026;51.002;13.668;2023-01-28T14:05:01;100202.16;;;-1.69;72.61
4024;BME280;2026;51.002;13.668;2023-01-28T14:10:26;100213.69;;;-2.00;73.83
4024;BME280;2026;51.002;13.668;2023-01-28T14:15:53;100215.53;;;-1.90;74.52
4024;BME280;2026;51.002;13.668;2023-01-28T14:21:02;100216.75;;;-1.95;74.84
4024;BME280;2026;51.002;13.668;2023-01-28T14:26:22;100218.72;;;-1.86;74.49
4024;BME280;2026;51.002;13.668;2023-01-28T14:31:30;100215.09;;;-1.96;75.58
4024;BME280;2026;51.002;13.668;2023-01-28T14:36:38;100218.00;;;-1.88;76.36
4024;BME280;2026;51.002;13.668;2023-01-28T14:41:43;100212.22;;;-1.92;76.19
4024;BME280;2026;51.002;13.668;2023-01-28T14:46:57;100211.44;;;-1.79;75.24
4024;BME280;2026;51.002;13.668;2023-01-28T14:52:23;100204.00;;;-1.58;74.65
4024;BME280;2026;51.002;13.668;2023-01-28T14:57:42;100212.44;;;-1.95;77.59
4024;BME280;2026;51.002;13.668;2023-01-28T15:02:46;100215.63;;;-1.91;76.89
4024;BME280;2026;51.002;13.668;2023-01-28T15:07:52;100212.41;;;-2.21;76.42
4024;BME280;2026;51.002;13.668;2023-01-28T15:12:57;100213.13;;;-2.19;78.37
4024;BME280;2026;51.002;13.668;2023-01-28T15:18:03;100204.44;;;-1.90;76.63
4024;BME280;2026;51.002;13.668;2023-01-28T15:23:08;100217.59;;;-1.95;74.93
4024;BME280;2026;51.002;13.668;2023-01-28T15:28:18;100222.34;;;-1.88;75.00
4024;BME280;2026;51.002;13.668;2023-01-28T15:33:24;100209.56;;;-1.90;75.72
4024;BME280;2026;51.002;13.668;2023-01-28T15:38:29;100200.31;;;-1.67;74.01
4024;BME280;2026;51.002;13.668;2023-01-28T15:43:34;100207.28;;;-1.56;72.58
4024;BME280;2026;51.002;13.668;2023-01-28T15:48:40;100193.72;;;-1.71;73.04
4024;BME280;2026;51.002;13.668;2023-01-28T15:53:49;100183.41;;;-1.45;72.42
4024;BME280;2026;51.002;13.668;2023-01-28T15:58:53;100180.78;;;-1.56;70.75
4024;BME280;2026;51.002;13.668;2023-01-28T16:04:01;100179.44;;;-1.88;70.77
4024;BME280;2026;51.002;13.668;2023-01-28T16:09:15;100186.44;;;-1.77;71.71
4024;BME280;2026;51.002;13.668;2023-01-28T16:14:22;100176.66;;;-1.98;70.75
4024;BME280;2026;51.002;13.668;2023-01-28T16:19:36;100171.31;;;-1.82;70.87
4024;BME280;2026;51.002;13.668;2023-01-28T16:24:49;100171.81;;;-1.64;69.83
4024;BME280;2026;51.002;13.668;2023-01-28T16:29:53;100180.78;;;-1.69;70.65
4024;BME280;2026;51.002;13.668;2023-01-28T16:34:56;100194.25;;;-1.92;70.41
4024;BME280;2026;51.002;13.668;2023-01-28T16:40:01;100197.34;;;-1.86;71.59
4024;BME280;2026;51.002;13.668;2023-01-28T16:45:05;100202.56;;;-2.01;72.50
4024;BME280;2026;51.002;13.668;2023-01-28T16:50:09;100202.38;;;-1.72;71.22
4024;BME280;2026;51.002;13.668;2023-01-28T16:55:17;100200.09;;;-1.51;72.29
4024;BME280;2026;51.002;13.668;2023-01-28T17:00:22;100192.09;;;-1.59;72.36
4024;BME280;2026;51.002;13.668;2023-01-28T17:05:25;100190.84;;;-1.53;72.40
4024;BME280;2026;51.002;13.668;2023-01-28T17:10:30;100200.38;;;-1.42;71.44
4024;BME280;2026;51.002;13.668;2023-01-28T17:15:33;100208.25;;;-1.96;70.44
4024;BME280;2026;51.002;13.668;2023-01-28T17:20:36;100215.53;;;-1.64;70.85
4024;BME280;2026;51.002;13.668;2023-01-28T17:25:42;100221.03;;;-2.09;70.36
4024;BME280;2026;51.002;13.668;2023-01-28T17:30:45;100223.97;;;-1.87;70.83
4024;BME280;2026;51.002;13.668;2023-01-28T17:35:48;100243.22;;;-1.80;70.81
4024;BME280;2026;51.002;13.668;2023-01-28T17:40:52;100246.63;;;-1.54;72.25
4024;BME280;2026;51.002;13.668;2023-01-28T17:45:55;100258.50;;;-1.92;71.95
4024;BME280;2026;51.002;13.668;2023-01-28T17:50:58;100273.78;;;-2.16;71.70
4024;BME280;2026;51.002;13.668;2023-01-28T17:56:03;100268.34;;;-2.11;71.12
4024;BME280;2026;51.002;13.668;2023-01-28T18:01:07;100267.13;;;-2.06;70.69
4024;BME280;2026;51.002;13.668;2023-01-28T18:06:11;100269.16;;;-2.11;71.10
4024;BME280;2026;51.002;13.668;2023-01-28T18:11:17;100267.13;;;-2.06;71.77
4024;BME280;2026;51.002;13.668;2023-01-28T18:16:21;100260.16;;;-1.91;72.36
4024;BME280;2026;51.002;13.668;2023-01-28T18:21:31;100254.75;;;-1.73;75.29
4024;BME280;2026;51.002;13.668;2023-01-28T18:26:55;100258.03;;;-1.71;77.73
4024;BME280;2026;51.002;13.668;2023-01-28T18:31:59;100260.06;;;-1.76;77.87
4024;BME280;2026;51.002;13.668;2023-01-28T18:37:02;100257.72;;;-1.53;78.54
4024;BME280;2026;51.002;13.668;2023-01-28T18:42:08;100275.41;;;-1.36;77.80
4024;BME280;2026;51.002;13.668;2023-01-28T18:47:12;100272.84;;;-1.49;78.68
4024;BME280;2026;51.002;13.668;2023-01-28T18:52:14;100274.97;;;-1.29;77.89
4024;BME280;2026;51.002;13.668;2023-01-28T18:57:19;100298.03;;;-1.15;77.81
4024;BME280;2026;51.002;13.668;2023-01-28T19:02:22;100289.50;;;-1.28;77.75
4024;BME280;2026;51.002;13.668;2023-01-28T19:07:25;100321.13;;;-1.26;79.50
4024;BME280;2026;51.002;13.668;2023-01-28T19:12:30;100334.28;;;-1.18;78.42
4024;BME280;2026;51.002;13.668;2023-01-28T19:17:33;100340.34;;;-1.19;78.49
4024;BME280;2026;51.002;13.668;2023-01-28T19:22:36;100341.56;;;-1.25;78.84
4024;BME280;2026;51.002;13.668;2023-01-28T19:27:44;100340.44;;;-1.08;78.09
4024;BME280;2026;51.002;13.668;2023-01-28T19:32:47;100329.84;;;-1.03;77.34
4024;BME280;2026;51.002;13.668;2023-01-28T19:37:49;100320.38;;;-1.02;76.71
4024;BME280;2026;51.002;13.668;2023-01-28T19:42:54;100313.69;;;-1.05;77.16
4024;BME280;2026;51.002;13.668;2023-01-28T19:47:57;100306.66;;;-1.03;77.14
4024;BME280;2026;51.002;13.668;2023-01-28T19:53:00;100291.44;;;-1.19;77.75
4024;BME280;2026;51.002;13.668;2023-01-28T19:58:04;100304.31;;;-1.06;77.32
4024;BME280;2026;51.002;13.668;2023-01-28T20:03:07;100301.84;;;-1.08;77.20
4024;BME280;2026;51.002;13.668;2023-01-28T20:08:10;100296.72;;;-1.21;76.44
4024;BME280;2026;51.002;13.668;2023-01-28T20:13:14;100295.03;;;-1.09;76.81
4024;BME280;2026;51.002;13.668;2023-01-28T20:18:17;100280.94;;;-1.16;76.94
4024;BME280;2026;51.002;13.668;2023-01-28T20:23:20;100280.56;;;-1.23;78.61
4024;BME280;2026;51.002;13.668;2023-01-28T20:28:25;100283.44;;;-1.14;76.50
4024;BME280;2026;51.002;13.668;2023-01-28T20:33:28;100261.50;;;-1.33;76.61
4024;BME280;2026;51.002;13.668;2023-01-28T20:38:33;100265.91;;;-1.22;76.97
4024;BME280;2026;51.002;13.668;2023-01-28T20:43:39;100264.16;;;-1.35;78.19
4024;BME280;2026;51.002;13.668;2023-01-28T20:48:42;100248.84;;;-1.62;78.58
4024;BME280;2026;51.002;13.668;2023-01-28T20:53:46;100268.19;;;-1.30;77.52
4024;BME280;2026;51.002;13.668;2023-01-28T20:58:55;100273.34;;;-1.30;76.61
4024;BME280;2026;51.002;13.668;2023-01-28T21:03:59;100278.41;;;-1.42;75.79
4024;BME280;2026;51.002;13.668;2023-01-28T21:09:03;100285.81;;;-1.37;75.56
4024;BME280;2026;51.002;13.668;2023-01-28T21:14:07;100291.75;;;-1.37;75.83
4024;BME280;2026;51.002;13.668;2023-01-28T21:19:11;100304.22;;;-1.30;76.81
4024;BME280;2026;51.002;13.668;2023-01-28T21:24:14;100313.91;;;-1.34;75.79
4024;BME280;2026;51.002;13.668;2023-01-28T21:29:18;100317.78;;;-1.28;76.28
4024;BME280;2026;51.002;13.668;2023-01-28T21:34:21;100321.13;;;-1.26;74.96
4024;BME280;2026;51.002;13.668;2023-01-28T21:39:25;100325.75;;;-1.31;75.69
4024;BME280;2026;51.002;13.668;2023-01-28T21:44:29;100309.97;;;-1.27;75.06
4024;BME280;2026;51.002;13.668;2023-01-28T21:49:32;100320.69;;;-1.07;80.23
4024;BME280;2026;51.002;13.668;2023-01-28T21:54:35;100329.31;;;-0.95;75.69
4024;BME280;2026;51.002;13.668;2023-01-28T21:59:40;100317.97;;;-0.93;75.56
4024;BME280;2026;51.002;13.668;2023-01-28T22:04:44;100322.44;;;-1.33;76.11
4024;BME280;2026;51.002;13.668;2023-01-28T22:09:49;100298.88;;;-1.40;75.84
4024;BME280;2026;51.002;13.668;2023-01-28T22:14:54;100312.88;;;-1.44;76.29
4024;BME280;2026;51.002;13.668;2023-01-28T22:19:57;100303.38;;;-1.44;76.60
4024;BME280;2026;51.002;13.668;2023-01-28T22:25:00;100294.66;;;-1.41;76.94
4024;BME280;2026;51.002;13.668;2023-01-28T22:30:05;100289.28;;;-1.51;77.46
4024;BME280;2026;51.002;13.668;2023-01-28T22:35:08;100283.84;;;-1.46;77.15
4024;BME280;2026;51.002;13.668;2023-01-28T22:40:11;100276.84;;;-1.44;76.97
4024;BME280;2026;51.002;13.668;2023-01-28T22:45:16;100279.13;;;-1.53;76.83
4024;BME280;2026;51.002;13.668;2023-01-28T22:50:19;100277.03;;;-1.35;76.99
4024;BME280;2026;51.002;13.668;2023-01-28T22:55:22;100278.50;;;-1.43;77.31
4024;BME280;2026;51.002;13.668;2023-01-28T23:00:27;100268.19;;;-1.30;76.45
4024;BME280;2026;51.002;13.668;2023-01-28T23:05:30;100285.06;;;-1.39;76.65
4024;BME280;2026;51.002;13.668;2023-01-28T23:10:32;100279.00;;;-1.25;76.49
4024;BME280;2026;51.002;13.668;2023-01-28T23:15:37;100280.75;;;-1.26;75.82
4024;BME280;2026;51.002;13.668;2023-01-28T23:20:57;100293.41;;;-1.36;76.19
4024;BME280;2026;51.002;13.668;2023-01-28T23:26:17;100284.66;;;-1.20;75.72
4024;BME280;2026;51.002;13.668;2023-01-28T23:31:22;100281.59;;;-1.38;76.35
4024;BME280;2026;51.002;13.668;2023-01-28T23:36:25;100276.22;;;-1.35;75.67
4024;BME280;2026;51.002;13.668;2023-01-28T23:41:28;100276.88;;;-1.57;76.93
4024;BME280;2026;51.002;13.668;2023-01-28T23:46:33;100281.25;;;-1.46;76.42
4024;BME280;2026;51.002;13.668;2023-01-28T23:51:40;100287.75;;;-1.41;76.75
4024;BME280;2026;51.002;13.668;2023-01-28T23:56:43;100281.38;;;-1.35;75.62
